Time;durP1;ratioP1;P1;durP2;ratioP2;P2;SDS_P1;SDS_P2;PMS_P1;PMS_P2;Temp;Humidity;BMP_temperature;BMP_pressure;BME280_temperature;BME280_humidity;BME280_pressure;Samples;Min_cycle;Max_cycle;Signal;HPM_P1;HPM_P2
2021/09/18 00:02:20;;;;;;;7.82;6.32;;;20.80;66.90;;;;;;5055227;28;20039;-82
2021/09/18 00:04:46;;;;;;;6.63;4.93;;;20.70;66.90;;;;;;5055349;28;20126;-82
2021/09/18 00:07:12;;;;;;;7.97;6.03;;;20.80;66.90;;;;;;5039196;28;20040;-81
2021/09/18 00:09:38;;;;;;;7.22;5.90;;;20.70;66.90;;;;;;5039583;28;20430;-82
2021/09/18 00:12:04;;;;;;;7.07;5.38;;;20.70;66.90;;;;;;5038755;28;20020;-82
2021/09/18 00:14:29;;;;;;;7.13;5.85;;;20.70;67.00;;;;;;5055520;28;20048;-81
2021/09/18 00:16:55;;;;;;;7.30;5.35;;;20.70;67.00;;;;;;5038773;28;20111;-82
2021/09/18 00:19:21;;;;;;;7.70;5.63;;;20.60;67.00;;;;;;5072011;28;20025;-82
2021/09/18 00:21:47;;;;;;;6.38;5.18;;;20.60;67.00;;;;;;5055240;28;20393;-82
2021/09/18 00:24:13;;;;;;;7.03;5.57;;;20.60;67.00;;;;;;5055249;28;20039;-82
2021/09/18 00:26:38;;;;;;;6.85;5.85;;;20.60;67.00;;;;;;5072152;28;20115;-81
2021/09/18 00:29:04;;;;;;;6.53;5.45;;;20.60;67.10;;;;;;5055505;28;20558;-81
2021/09/18 00:31:30;;;;;;;6.85;5.78;;;20.50;67.00;;;;;;5072050;28;20064;-81
2021/09/18 00:33:56;;;;;;;7.28;5.70;;;20.50;67.00;;;;;;5073218;28;20483;-81
2021/09/18 00:36:22;;;;;;;6.57;5.55;;;20.50;67.10;;;;;;5055723;28;20036;-80
2021/09/18 00:38:48;;;;;;;7.13;5.65;;;20.50;67.10;;;;;;5055444;28;20036;-81
2021/09/18 00:41:15;;;;;;;7.00;4.97;;;20.50;67.20;;;;;;5040900;28;20380;-82
2021/09/18 00:43:40;;;;;;;7.53;6.03;;;20.40;67.10;;;;;;5075404;28;20028;-81
2021/09/18 00:46:06;;;;;;;6.50;5.68;;;20.40;67.10;;;;;;5058531;28;20040;-80
2021/09/18 00:48:32;;;;;;;6.63;4.93;;;20.40;67.20;;;;;;5058659;28;20064;-81
2021/09/18 00:50:58;;;;;;;6.68;5.22;;;20.30;67.10;;;;;;5025583;28;20033;-81
2021/09/18 00:53:24;;;;;;;6.90;5.10;;;20.30;67.20;;;;;;5058674;28;20078;-82
2021/09/18 00:55:50;;;;;;;6.60;5.40;;;20.30;67.20;;;;;;5058402;28;20547;-81
2021/09/18 00:58:16;;;;;;;6.57;5.25;;;20.30;67.20;;;;;;5074945;28;20020;-82
2021/09/18 01:00:42;;;;;;;7.00;5.43;;;20.30;67.20;;;;;;5075036;28;20032;-80
2021/09/18 01:03:08;;;;;;;7.95;5.63;;;20.20;67.10;;;;;;5058171;28;20035;-81
2021/09/18 01:05:35;;;;;;;7.35;5.32;;;20.20;67.20;;;;;;5027173;28;20048;-81
2021/09/18 01:08:02;;;;;;;6.72;5.47;;;20.20;67.20;;;;;;5061846;28;20475;-80
2021/09/18 01:10:28;;;;;;;7.32;5.72;;;20.20;67.20;;;;;;5045013;28;20379;-80
2021/09/18 01:13:03;;;;;;;7.30;5.95;;;20.20;67.30;;;;;;5061152;28;20031;-81
2021/09/18 01:15:30;;;;;;;6.35;5.10;;;20.10;67.30;;;;;;5061604;28;20118;-81
2021/09/18 01:17:58;;;;;;;6.15;4.72;;;20.10;67.20;;;;;;5062157;28;20070;-83
2021/09/18 01:20:25;;;;;;;6.78;5.05;;;20.10;67.30;;;;;;5077910;28;20077;-82
2021/09/18 01:22:52;;;;;;;6.00;4.93;;;20.10;67.90;;;;;;5077826;28;20032;-80
2021/09/18 01:25:17;;;;;;;5.95;4.60;;;20.00;67.30;;;;;;5045385;28;20032;-83
2021/09/18 01:27:45;;;;;;;6.78;5.25;;;20.00;67.30;;;;;;5044607;28;20396;-81
2021/09/18 01:30:20;;;;;;;6.35;4.75;;;20.00;68.00;;;;;;5061182;28;20166;-81
2021/09/18 01:32:46;;;;;;;5.95;4.75;;;20.00;67.40;;;;;;5077686;28;20028;-81
2021/09/18 01:35:13;;;;;;;6.05;4.53;;;20.00;67.30;;;;;;5060940;28;20073;-81
2021/09/18 01:37:38;;;;;;;6.68;5.00;;;19.90;67.30;;;;;;5061779;28;20028;-81
2021/09/18 01:40:06;;;;;;;6.25;4.22;;;19.90;67.30;;;;;;5060760;28;20479;-80
2021/09/18 01:42:31;;;;;;;5.93;4.80;;;19.90;67.30;;;;;;5077681;28;20035;-81
2021/09/18 01:44:57;;;;;;;5.50;4.15;;;19.80;67.30;;;;;;5044325;28;20376;-81
2021/09/18 01:47:23;;;;;;;5.78;4.45;;;19.80;67.30;;;;;;5061459;28;20181;-80
2021/09/18 01:49:48;;;;;;;5.63;4.00;;;19.80;67.30;;;;;;5060664;28;20042;-81
2021/09/18 01:52:35;;;;;;;6.20;4.30;;;19.80;67.40;;;;;;5060286;28;20065;-81
2021/09/18 01:55:01;;;;;;;5.63;4.40;;;19.80;67.40;;;;;;5080359;28;20043;-82
2021/09/18 01:57:27;;;;;;;5.53;4.07;;;19.80;67.40;;;;;;5060732;28;20373;-82
2021/09/18 01:59:53;;;;;;;4.75;3.78;;;19.80;67.40;;;;;;5061214;28;20028;-81
2021/09/18 02:02:18;;;;;;;5.70;4.25;;;19.70;67.40;;;;;;5044077;28;20032;-81
2021/09/18 02:04:44;;;;;;;5.55;4.03;;;19.70;67.40;;;;;;5044163;28;20032;-80
2021/09/18 02:07:11;;;;;;;5.30;3.95;;;19.70;67.50;;;;;;5024270;28;20053;-81
2021/09/18 02:09:36;;;;;;;5.07;3.60;;;19.60;67.40;;;;;;5056908;28;20032;-82
2021/09/18 02:12:02;;;;;;;5.00;3.70;;;19.60;67.50;;;;;;5056949;28;20039;-81
2021/09/18 02:14:28;;;;;;;4.95;3.70;;;19.60;67.50;;;;;;5073482;28;20039;-82
2021/09/18 02:16:54;;;;;;;4.97;3.58;;;19.60;67.50;;;;;;5056735;28;20032;-81
2021/09/18 02:19:20;;;;;;;5.38;3.50;;;19.50;67.50;;;;;;5073663;28;20029;-81
2021/09/18 02:21:45;;;;;;;5.43;4.05;;;19.50;67.50;;;;;;5056773;28;20025;-82
2021/09/18 02:24:11;;;;;;;5.82;3.92;;;19.50;67.50;;;;;;5024424;28;20357;-81
2021/09/18 02:26:37;;;;;;;4.78;3.33;;;19.50;67.50;;;;;;5057318;28;20412;-81
2021/09/18 02:29:02;;;;;;;5.13;3.58;;;19.50;67.50;;;;;;5056513;28;20031;-82
2021/09/18 02:31:28;;;;;;;3.72;2.55;;;19.40;67.50;;;;;;5057399;28;20477;-82
2021/09/18 02:33:54;;;;;;;4.97;3.40;;;19.40;67.50;;;;;;5023660;28;20032;-81
2021/09/18 02:36:20;;;;;;;4.90;3.53;;;19.40;67.60;;;;;;5056758;28;20445;-80
2021/09/18 02:38:45;;;;;;;5.82;3.53;;;19.40;67.60;;;;;;5057169;28;20077;-81
2021/09/18 02:41:11;;;;;;;4.93;3.38;;;19.30;67.50;;;;;;5023356;28;20041;-81
2021/09/18 02:43:37;;;;;;;4.00;2.97;;;19.30;67.60;;;;;;5039732;28;20439;-81
2021/09/18 02:46:03;;;;;;;4.70;3.50;;;19.30;67.60;;;;;;5023134;28;20044;-82
2021/09/18 02:48:28;;;;;;;3.70;2.72;;;19.30;67.60;;;;;;5039595;28;20033;-81
2021/09/18 02:50:54;;;;;;;4.28;3.17;;;19.20;67.60;;;;;;5055923;28;20469;-81
2021/09/18 02:53:20;;;;;;;4.15;2.88;;;19.30;67.60;;;;;;5056029;28;20119;-82
2021/09/18 02:55:46;;;;;;;3.72;2.90;;;19.30;67.60;;;;;;5072752;28;20131;-81
2021/09/18 02:58:11;;;;;;;3.53;2.90;;;19.20;67.60;;;;;;5056113;28;20116;-81
2021/09/18 03:00:37;;;;;;;3.50;2.67;;;19.20;67.60;;;;;;5023312;28;20025;-82
2021/09/18 03:03:03;;;;;;;3.80;2.80;;;19.10;67.60;;;;;;5056300;28;20032;-85
2021/09/18 03:05:29;;;;;;;4.18;2.67;;;19.10;67.60;;;;;;5056212;28;20071;-82
2021/09/18 03:07:54;;;;;;;3.67;2.63;;;19.10;67.60;;;;;;5055791;28;20093;-82
2021/09/18 03:10:20;;;;;;;3.78;2.60;;;19.10;67.60;;;;;;5056840;28;20052;-82
2021/09/18 03:12:46;;;;;;;4.15;2.70;;;19.00;67.60;;;;;;5039384;28;20060;-82
2021/09/18 03:15:12;;;;;;;3.60;2.30;;;19.00;67.70;;;;;;5072511;28;20033;-81
2021/09/18 03:17:38;;;;;;;3.53;2.45;;;19.00;67.70;;;;;;5072621;28;20025;-81
2021/09/18 03:20:06;;;;;;;3.17;2.25;;;19.00;67.70;;;;;;5039574;28;20418;-83
2021/09/18 03:22:31;;;;;;;3.15;2.30;;;19.00;67.80;;;;;;5055855;28;20037;-82
2021/09/18 03:24:57;;;;;;;3.78;2.47;;;18.90;67.70;;;;;;5056175;28;20396;-82
2021/09/18 03:27:23;;;;;;;4.72;2.42;;;18.90;67.70;;;;;;5056058;28;20029;-80
2021/09/18 03:29:49;;;;;;;3.45;2.47;;;18.90;67.70;;;;;;5055775;28;20464;-82
2021/09/18 03:32:14;;;;;;;3.17;2.30;;;18.90;67.80;;;;;;5072381;28;20047;-81
2021/09/18 03:34:40;;;;;;;2.75;2.10;;;18.90;67.80;;;;;;5039297;28;20067;-81
2021/09/18 03:37:06;;;;;;;3.03;2.45;;;18.80;67.80;;;;;;5056103;28;20052;-83
2021/09/18 03:39:32;;;;;;;2.63;2.17;;;18.80;67.80;;;;;;5055562;28;20116;-82
2021/09/18 03:41:58;;;;;;;3.00;2.17;;;18.80;67.80;;;;;;5072414;28;20111;-82
2021/09/18 03:44:25;;;;;;;3.25;2.42;;;18.80;67.80;;;;;;5072332;28;20074;-82
2021/09/18 03:46:50;;;;;;;3.75;2.67;;;18.80;67.90;;;;;;5055547;28;20041;-81
2021/09/18 03:49:16;;;;;;;3.55;2.47;;;18.80;67.90;;;;;;5038612;28;20036;-82
2021/09/18 03:51:42;;;;;;;3.10;2.30;;;18.80;67.90;;;;;;5073002;28;20057;-82
2021/09/18 03:54:08;;;;;;;2.95;2.30;;;18.70;67.90;;;;;;5055559;28;20039;-83
2021/09/18 03:56:34;;;;;;;3.17;2.45;;;18.70;67.90;;;;;;5055790;28;20089;-82
2021/09/18 03:58:59;;;;;;;2.88;2.28;;;18.70;68.00;;;;;;5055825;28;20018;-82
2021/09/18 04:01:25;;;;;;;2.70;2.28;;;18.60;67.90;;;;;;5055423;28;20365;-83
2021/09/18 04:03:51;;;;;;;2.60;2.10;;;18.60;67.90;;;;;;5055526;28;20036;-83
2021/09/18 04:06:17;;;;;;;3.55;2.22;;;18.60;68.00;;;;;;5071704;28;20528;-82
2021/09/18 04:08:44;;;;;;;2.75;2.15;;;18.60;68.00;;;;;;5055650;28;20033;-82
2021/09/18 04:11:10;;;;;;;2.75;2.08;;;18.60;68.00;;;;;;5072019;28;20036;-82
2021/09/18 04:13:36;;;;;;;2.70;2.13;;;18.60;68.00;;;;;;5055188;28;20036;-82
2021/09/18 04:16:02;;;;;;;3.72;2.38;;;18.50;68.00;;;;;;5059724;28;20449;-83
2021/09/18 04:18:28;;;;;;;2.80;2.10;;;18.50;68.00;;;;;;5059488;28;20033;-83
2021/09/18 04:20:54;;;;;;;2.35;1.92;;;18.50;68.00;;;;;;5059067;28;20079;-84
2021/09/18 04:23:19;;;;;;;2.45;1.85;;;18.50;68.10;;;;;;5043309;28;20427;-82
2021/09/18 04:25:45;;;;;;;3.13;2.17;;;18.40;68.00;;;;;;5075377;28;20033;-82
2021/09/18 04:28:11;;;;;;;3.70;2.15;;;18.40;68.00;;;;;;5076314;28;20131;-83
2021/09/18 04:30:37;;;;;;;2.35;2.00;;;18.40;68.10;;;;;;5075417;28;20025;-82
2021/09/18 04:33:03;;;;;;;2.97;2.08;;;18.40;68.10;;;;;;5059137;28;20074;-81
2021/09/18 04:35:28;;;;;;;3.47;2.53;;;18.40;68.10;;;;;;5026017;28;20052;-82
2021/09/18 04:37:54;;;;;;;2.78;2.30;;;18.40;68.10;;;;;;5058745;28;20460;-82
2021/09/18 04:40:20;;;;;;;3.15;2.33;;;18.40;68.10;;;;;;5058984;28;20067;-83
2021/09/18 04:42:46;;;;;;;2.92;2.30;;;18.40;68.20;;;;;;5058602;28;20028;-82
2021/09/18 04:45:12;;;;;;;3.38;2.47;;;18.40;68.20;;;;;;5058821;28;20036;-85
2021/09/18 04:47:38;;;;;;;3.30;2.30;;;18.30;68.10;;;;;;5075507;28;20032;-81
2021/09/18 04:50:04;;;;;;;5.03;2.65;;;18.30;68.20;;;;;;5043130;28;20032;-83
2021/09/18 04:52:30;;;;;;;4.43;2.40;;;18.30;68.20;;;;;;5075562;28;20020;-81
2021/09/18 04:54:55;;;;;;;3.65;2.55;;;18.30;68.30;;;;;;5059827;28;20073;-82
2021/09/18 04:57:21;;;;;;;3.47;2.38;;;18.30;68.40;;;;;;5060814;28;20496;-81
2021/09/18 04:59:47;;;;;;;3.38;2.40;;;18.30;68.40;;;;;;5059972;28;20119;-82
2021/09/18 05:02:13;;;;;;;3.83;2.80;;;18.20;68.30;;;;;;5043855;28;20030;-84
2021/09/18 05:04:39;;;;;;;4.28;3.00;;;18.20;68.40;;;;;;5060296;28;20028;-82
2021/09/18 05:07:04;;;;;;;4.00;2.60;;;18.20;68.40;;;;;;5042983;28;20098;-82
2021/09/18 05:09:30;;;;;;;4.03;2.95;;;18.20;68.40;;;;;;5043829;28;20040;-83
2021/09/18 05:11:56;;;;;;;4.20;2.67;;;18.20;68.50;;;;;;5061319;28;20025;-83
2021/09/18 05:14:22;;;;;;;3.38;2.72;;;18.20;68.50;;;;;;5025061;28;20028;-81
2021/09/18 05:16:47;;;;;;;4.15;2.90;;;18.10;68.50;;;;;;5041571;28;20044;-83
2021/09/18 05:19:13;;;;;;;4.28;2.92;;;18.20;68.60;;;;;;5058458;28;20021;-81
2021/09/18 05:21:39;;;;;;;4.10;2.78;;;18.10;68.60;;;;;;5058731;28;20047;-82
2021/09/18 05:24:05;;;;;;;3.78;2.72;;;18.10;68.60;;;;;;5041760;28;20380;-82
2021/09/18 05:26:31;;;;;;;4.15;2.83;;;18.10;68.70;;;;;;5057048;28;20554;-82
2021/09/18 05:28:57;;;;;;;4.05;2.92;;;18.10;68.70;;;;;;5058111;28;20063;-82
2021/09/18 05:31:23;;;;;;;4.35;2.88;;;18.10;68.70;;;;;;5058643;28;20020;-81
2021/09/18 05:33:48;;;;;;;4.00;2.95;;;18.10;68.80;;;;;;5057743;28;20380;-82
2021/09/18 05:36:14;;;;;;;4.35;3.00;;;18.10;68.80;;;;;;5041885;28;20032;-82
2021/09/18 05:38:40;;;;;;;4.95;3.20;;;18.10;68.80;;;;;;5074363;28;20538;-82
2021/09/18 05:41:06;;;;;;;3.85;2.80;;;18.00;68.80;;;;;;5058517;28;20098;-81
2021/09/18 05:43:31;;;;;;;5.00;3.50;;;18.00;68.80;;;;;;5057890;28;20029;-82
2021/09/18 05:45:57;;;;;;;4.95;3.35;;;18.00;68.80;;;;;;5074265;28;20041;-82
2021/09/18 05:48:23;;;;;;;4.55;3.10;;;18.00;68.90;;;;;;5057495;28;20032;-83
2021/09/18 05:50:49;;;;;;;5.30;3.30;;;18.00;68.90;;;;;;5041017;28;20141;-81
2021/09/18 05:53:15;;;;;;;4.20;3.22;;;18.00;69.00;;;;;;5074370;28;20032;-82
2021/09/18 05:55:40;;;;;;;4.22;3.03;;;18.00;69.00;;;;;;5025023;28;20376;-82
2021/09/18 05:58:06;;;;;;;4.57;3.30;;;18.00;69.10;;;;;;5058178;28;20032;-82
2021/09/18 06:00:32;;;;;;;4.55;3.50;;;18.00;69.10;;;;;;5057360;28;20036;-82
2021/09/18 06:02:58;;;;;;;4.68;3.40;;;18.00;69.10;;;;;;5057352;28;20032;-83
2021/09/18 06:05:24;;;;;;;5.05;3.47;;;18.00;69.20;;;;;;5057002;28;20553;-82
2021/09/18 06:07:50;;;;;;;4.93;3.60;;;18.00;69.20;;;;;;5057719;28;20044;-83
2021/09/18 06:10:15;;;;;;;4.53;3.20;;;18.00;69.20;;;;;;5057053;28;20076;-82
2021/09/18 06:12:41;;;;;;;4.43;3.20;;;18.00;69.30;;;;;;5023991;28;20492;-83
2021/09/18 06:15:08;;;;;;;4.82;3.42;;;17.90;69.30;;;;;;5041243;28;20040;-83
2021/09/18 06:17:33;;;;;;;5.10;3.63;;;17.90;69.30;;;;;;5056946;28;20522;-82
2021/09/18 06:19:59;;;;;;;4.32;3.08;;;18.00;69.40;;;;;;5073755;28;20032;-83
2021/09/18 06:22:25;;;;;;;4.72;3.55;;;18.00;69.40;;;;;;5040784;28;20145;-83
2021/09/18 06:24:50;;;;;;;5.20;3.78;;;17.90;69.40;;;;;;5024045;28;20025;-83
2021/09/18 06:27:16;;;;;;;4.82;3.70;;;18.00;69.40;;;;;;5057464;28;20032;-81
2021/09/18 06:29:42;;;;;;;4.70;3.45;;;17.90;69.50;;;;;;5056870;28;20039;-84
2021/09/18 06:32:08;;;;;;;4.65;3.45;;;18.00;69.50;;;;;;5023830;28;20162;-83
2021/09/18 06:34:37;;;;;;;5.40;3.45;;;17.90;69.50;;;;;;5073805;28;20111;-84
2021/09/18 06:37:04;;;;;;;4.05;3.15;;;17.90;69.60;;;;;;5056826;28;20370;-83
2021/09/18 06:39:30;;;;;;;4.10;3.22;;;17.90;69.50;;;;;;5040046;28;20418;-83
2021/09/18 06:41:55;;;;;;;4.85;3.80;;;17.90;69.60;;;;;;5056854;28;20052;-83
2021/09/18 06:44:21;;;;;;;4.78;3.47;;;18.00;69.70;;;;;;5075042;28;20032;-85
2021/09/18 06:46:47;;;;;;;4.30;3.17;;;18.00;69.70;;;;;;5056517;28;20057;-83
2021/09/18 06:49:13;;;;;;;4.45;3.40;;;17.90;69.60;;;;;;5040293;28;20032;-83
2021/09/18 06:51:38;;;;;;;4.63;3.45;;;18.00;69.70;;;;;;5056903;28;20381;-82
2021/09/18 06:54:05;;;;;;;5.03;3.70;;;18.00;69.70;;;;;;5040199;28;20037;-83
2021/09/18 06:56:31;;;;;;;4.68;3.47;;;18.00;69.80;;;;;;5057079;28;20043;-83
2021/09/18 06:58:57;;;;;;;4.40;3.17;;;18.00;69.80;;;;;;5073225;28;20024;-82
2021/09/18 07:01:24;;;;;;;5.13;3.90;;;18.00;69.80;;;;;;5057077;28;20033;-84
2021/09/18 07:03:49;;;;;;;4.50;3.30;;;18.00;69.90;;;;;;5073336;28;20033;-83
2021/09/18 07:06:15;;;;;;;4.40;3.30;;;18.00;69.90;;;;;;5057809;28;20055;-83
2021/09/18 07:08:42;;;;;;;4.47;3.30;;;18.00;70.00;;;;;;5060346;28;20071;-84
2021/09/18 07:11:08;;;;;;;4.95;3.90;;;18.00;70.00;;;;;;5043298;28;20097;-84
2021/09/18 07:13:34;;;;;;;4.90;3.85;;;18.00;70.00;;;;;;5059915;28;20114;-84
2021/09/18 07:16:00;;;;;;;4.60;3.58;;;18.00;70.00;;;;;;5094503;28;20028;-83
2021/09/18 07:18:25;;;;;;;4.40;3.42;;;18.00;70.10;;;;;;5060588;28;20456;-82
2021/09/18 07:20:52;;;;;;;4.93;3.72;;;18.10;70.10;;;;;;5076184;28;20483;-84
2021/09/18 07:23:17;;;;;;;4.60;3.40;;;18.00;70.10;;;;;;5076868;28;20062;-84
2021/09/18 07:25:43;;;;;;;4.82;3.72;;;18.00;70.10;;;;;;5094676;28;20071;-84
2021/09/18 07:28:09;;;;;;;5.15;3.72;;;18.10;70.10;;;;;;5076408;28;20031;-84
2021/09/18 07:30:41;;;;;;;4.55;3.47;;;18.10;70.20;;;;;;5042946;28;20115;-84
2021/09/18 07:33:07;;;;;;;4.22;3.35;;;18.10;70.20;;;;;;5027157;28;20033;-86
2021/09/18 07:35:33;;;;;;;4.28;3.42;;;18.10;70.20;;;;;;5060049;28;20035;-82
2021/09/18 07:38:03;;;;;;;4.93;3.65;;;18.10;70.20;;;;;;5059348;28;20456;-82
2021/09/18 07:40:31;;;;;;;5.28;4.18;;;18.10;70.20;;;;;;5076548;28;20123;-81
2021/09/18 07:42:56;;;;;;;5.10;3.63;;;18.10;70.20;;;;;;5075660;28;20138;-80
2021/09/18 07:45:22;;;;;;;5.95;4.47;;;18.10;70.30;;;;;;5075424;28;20518;-79
2021/09/18 07:47:48;;;;;;;5.32;4.15;;;18.20;70.30;;;;;;5058948;28;20036;-79
2021/09/18 07:50:14;;;;;;;4.78;3.75;;;18.20;70.30;;;;;;5061672;28;20036;-79
2021/09/18 07:52:40;;;;;;;5.40;4.13;;;18.20;70.30;;;;;;5079532;28;20352;-79
2021/09/18 07:55:07;;;;;;;5.15;3.97;;;18.20;70.30;;;;;;5080448;28;20464;-80
2021/09/18 07:57:33;;;;;;;5.47;3.97;;;18.30;70.40;;;;;;5062828;28;20028;-80
2021/09/18 07:59:59;;;;;;;5.00;3.90;;;18.30;70.40;;;;;;5062723;28;20123;-79
2021/09/18 08:02:25;;;;;;;5.10;3.72;;;18.30;70.40;;;;;;5079471;28;20115;-81
2021/09/18 08:04:50;;;;;;;5.13;4.00;;;18.20;70.40;;;;;;5079083;28;20140;-79
2021/09/18 08:07:20;;;;;;;6.05;4.60;;;18.30;70.40;;;;;;5097215;28;20056;-80
2021/09/18 08:09:47;;;;;;;4.82;3.85;;;18.30;70.40;;;;;;5063659;28;20426;-79
2021/09/18 08:12:13;;;;;;;5.40;4.03;;;18.30;70.40;;;;;;5062581;28;20024;-81
2021/09/18 08:14:39;;;;;;;5.25;4.15;;;18.30;70.40;;;;;;5030153;28;20093;-96
2021/09/18 08:17:05;;;;;;;5.25;3.95;;;18.40;70.40;;;;;;5047174;28;20028;-89
2021/09/18 08:19:31;;;;;;;6.15;4.57;;;18.40;70.50;;;;;;5031442;28;20074;-83
2021/09/18 08:21:56;;;;;;;6.10;4.85;;;18.40;70.40;;;;;;5069090;28;20024;-83
2021/09/18 08:24:22;;;;;;;5.72;4.47;;;18.40;70.50;;;;;;5062479;28;20122;-85
2021/09/18 08:26:48;;;;;;;6.40;5.22;;;18.40;70.50;;;;;;5062346;28;20068;-82
2021/09/18 08:29:14;;;;;;;7.85;6.03;;;18.40;70.70;;;;;;5062001;28;20076;-82
2021/09/18 08:31:40;;;;;;;6.88;5.55;;;18.50;70.90;;;;;;5096667;28;20024;-81
2021/09/18 08:34:06;;;;;;;7.60;5.78;;;18.50;71.00;;;;;;5078587;28;20504;-81
2021/09/18 08:36:32;;;;;;;7.07;5.38;;;18.50;71.10;;;;;;5062024;28;20595;-81
2021/09/18 08:38:57;;;;;;;7.22;5.63;;;18.50;71.10;;;;;;5028917;28;20032;-81
2021/09/18 08:41:24;;;;;;;7.55;6.00;;;18.50;71.10;;;;;;5061950;28;20499;-80
2021/09/18 08:43:50;;;;;;;7.35;6.18;;;18.50;71.10;;;;;;5078428;28;20428;-80
2021/09/18 08:46:19;;;;;;;7.00;5.40;;;18.60;71.10;;;;;;5078412;28;20047;-81
2021/09/18 08:48:48;;;;;;;7.45;5.85;;;18.60;71.10;;;;;;5078618;28;20411;-80
2021/09/18 08:51:14;;;;;;;7.30;5.72;;;18.60;71.10;;;;;;5062143;28;20020;-80
2021/09/18 08:53:40;;;;;;;7.78;6.18;;;18.70;71.10;;;;;;5078084;28;20032;-82
2021/09/18 08:56:06;;;;;;;8.18;6.30;;;18.70;71.10;;;;;;5078108;28;20119;-81
2021/09/18 08:58:32;;;;;;;7.78;6.25;;;18.70;71.00;;;;;;5078671;28;20048;-81
2021/09/18 09:00:58;;;;;;;7.72;6.10;;;18.80;71.00;;;;;;5076793;28;20027;-80
2021/09/18 09:03:29;;;;;;;7.65;5.95;;;18.80;71.00;;;;;;5078297;28;20032;-95
2021/09/18 09:06:14;;;;;;;7.15;5.70;;;18.80;71.00;;;;;;5081617;28;20036;-91
2021/09/18 09:08:53;;;;;;;6.80;5.43;;;18.80;71.00;;;;;;5079182;28;20058;-79
2021/09/18 09:11:21;;;;;;;7.57;5.70;;;18.90;70.90;;;;;;5079071;28;20107;-78
2021/09/18 09:14:10;;;;;;;7.50;5.70;;;18.90;70.90;;;;;;5078894;28;20039;-81
2021/09/18 09:16:37;;;;;;;7.05;5.85;;;18.90;71.00;;;;;;5078524;28;20044;-82
2021/09/18 09:19:17;;;;;;;8.25;6.32;;;19.00;70.80;;;;;;5061974;28;20031;-86
2021/09/18 09:21:52;;;;;;;7.75;6.10;;;19.00;71.00;;;;;;5062078;28;20024;-87
2021/09/18 09:24:21;;;;;;;7.45;5.75;;;19.00;70.80;;;;;;5062355;28;20039;-87
2021/09/18 09:27:14;;;;;;;8.10;6.43;;;19.10;70.80;;;;;;5062071;28;20089;-82
2021/09/18 09:29:54;;;;;;;7.25;5.70;;;19.10;70.90;;;;;;5062514;28;20125;-86
2021/09/18 09:32:33;;;;;;;7.20;5.63;;;19.20;70.70;;;;;;5078482;28;20062;-83
2021/09/18 09:35:03;;;;;;;7.95;6.32;;;19.20;70.70;;;;;;5078266;28;20066;-83
2021/09/18 09:37:29;;;;;;;8.18;6.35;;;19.30;70.50;;;;;;5061762;28;20028;-83
2021/09/18 09:39:58;;;;;;;7.72;6.28;;;19.30;71.10;;;;;;5078449;28;20049;-83
2021/09/18 09:42:29;;;;;;;7.80;6.07;;;19.40;70.50;;;;;;5061555;28;20028;-82
2021/09/18 09:45:16;;;;;;;8.20;6.55;;;19.40;70.40;;;;;;5061538;28;20051;-83
2021/09/18 09:47:44;;;;;;;7.75;6.18;;;19.40;70.50;;;;;;5061603;28;20035;-83
2021/09/18 09:50:10;;;;;;;7.53;6.32;;;19.50;70.30;;;;;;5061294;28;20017;-83
2021/09/18 09:52:38;;;;;;;8.13;6.50;;;19.60;70.30;;;;;;5045769;28;20062;-83
2021/09/18 09:55:10;;;;;;;8.43;6.30;;;19.60;70.90;;;;;;5044865;28;20062;-83
2021/09/18 09:57:36;;;;;;;7.97;6.07;;;19.70;70.30;;;;;;5061726;28;20059;-83
2021/09/18 10:00:07;;;;;;;8.35;6.35;;;19.70;70.10;;;;;;5061226;28;20409;-84
2021/09/18 10:02:36;;;;;;;8.52;6.57;;;19.70;70.10;;;;;;5061323;28;20076;-83
2021/09/18 10:05:07;;;;;;;7.63;6.53;;;19.80;70.10;;;;;;5061125;28;20024;-81
2021/09/18 10:07:34;;;;;;;8.38;6.82;;;19.90;70.00;;;;;;5060412;28;20048;-85
2021/09/18 10:10:01;;;;;;;8.00;6.40;;;19.90;69.90;;;;;;5061294;28;20039;-83
2021/09/18 10:12:27;;;;;;;8.05;6.28;;;20.00;69.90;;;;;;5043560;28;20036;-82
2021/09/18 10:14:54;;;;;;;8.80;7.13;;;20.00;69.80;;;;;;5060641;28;20032;-82
2021/09/18 10:17:21;;;;;;;7.82;6.38;;;20.10;69.80;;;;;;5077674;28;20039;-82
2021/09/18 10:25:16;;;;;;;8.40;5.97;;;20.30;69.70;;;;;;5076372;28;20484;-85
2021/09/18 10:28:08;;;;;;;7.85;6.65;;;20.40;69.50;;;;;;5059580;28;20020;-84
2021/09/18 10:30:47;;;;;;;8.55;6.82;;;20.40;69.60;;;;;;5076908;28;20025;-82
2021/09/18 10:33:37;;;;;;;8.48;6.55;;;20.50;69.50;;;;;;5076835;28;20035;-82
2021/09/18 10:36:14;;;;;;;8.90;6.65;;;20.60;69.50;;;;;;5066964;28;20499;-82
2021/09/18 10:39:02;;;;;;;7.35;5.90;;;20.60;69.30;;;;;;5060094;28;20077;-82
2021/09/18 10:41:47;;;;;;;7.65;6.53;;;20.70;69.30;;;;;;5060017;28;20376;-81
2021/09/18 10:44:22;;;;;;;8.77;7.30;;;20.80;69.20;;;;;;5059977;28;20134;-84
2021/09/18 10:46:58;;;;;;;9.68;7.40;;;20.90;69.10;;;;;;5076589;28;20093;-83
2021/09/18 10:49:33;;;;;;;8.40;6.72;;;21.00;69.10;;;;;;5059953;28;20028;-82
2021/09/18 10:52:28;;;;;;;8.75;6.97;;;21.00;69.00;;;;;;5076295;28;20035;-82
2021/09/18 10:55:01;;;;;;;8.90;7.20;;;21.10;69.00;;;;;;5059757;28;20040;-82
2021/09/18 10:57:51;;;;;;;8.98;7.50;;;21.20;68.90;;;;;;5076242;28;20081;-81
2021/09/18 11:00:22;;;;;;;9.20;7.55;;;21.20;68.90;;;;;;5050665;28;20075;-82
2021/09/18 11:02:49;;;;;;;8.63;7.18;;;21.30;68.80;;;;;;5059736;28;20020;-82
2021/09/18 11:05:21;;;;;;;8.77;7.32;;;21.40;69.40;;;;;;5059377;28;20071;-82
2021/09/18 11:07:55;;;;;;;9.52;7.70;;;21.40;68.80;;;;;;5075760;28;20052;-81
2021/09/18 11:10:21;;;;;;;9.90;7.95;;;21.50;68.80;;;;;;5059721;28;20119;-82
2021/09/18 11:13:06;;;;;;;9.00;8.05;;;21.50;68.70;;;;;;5059851;28;20058;-83
2021/09/18 11:16:17;;;;;;;10.10;7.93;;;21.60;68.90;;;;;;5059353;28;20036;-82
2021/09/18 11:18:49;;;;;;;8.55;7.57;;;21.60;68.80;;;;;;4995632;28;20475;-82
2021/09/18 11:21:35;;;;;;;9.27;7.97;;;21.70;68.70;;;;;;5068371;28;20553;-81
2021/09/18 11:24:16;;;;;;;9.82;8.40;;;21.70;68.90;;;;;;5058417;28;20035;-80
2021/09/18 11:26:46;;;;;;;9.52;7.57;;;21.70;68.90;;;;;;5076526;28;20104;-88
2021/09/18 11:29:48;;;;;;;11.25;9.50;;;21.70;68.90;;;;;;5076897;28;20547;-83
2021/09/18 11:32:21;;;;;;;10.40;8.93;;;21.80;69.10;;;;;;5073863;28;20040;-83
2021/09/18 11:34:54;;;;;;;10.00;8.80;;;21.80;69.00;;;;;;5060152;28;20035;-90
2021/09/18 11:37:35;;;;;;;11.38;9.48;;;21.90;69.10;;;;;;5060525;28;20032;-87
2021/09/18 11:40:09;;;;;;;11.18;9.63;;;21.80;69.20;;;;;;5077321;28;20040;-88
2021/09/18 11:42:43;;;;;;;10.80;9.27;;;21.90;69.20;;;;;;5060662;28;20055;-85
2021/09/18 11:45:14;;;;;;;11.43;10.20;;;21.90;69.20;;;;;;5060269;28;20040;-83
2021/09/18 11:47:46;;;;;;;11.50;10.05;;;21.90;69.20;;;;;;5059438;28;20028;-83
2021/09/18 11:50:21;;;;;;;12.50;10.10;;;22.00;69.30;;;;;;5076727;28;20127;-88
2021/09/18 11:52:47;;;;;;;13.73;11.57;;;22.00;69.40;;;;;;5060199;28;20024;-89
2021/09/18 11:55:28;;;;;;;13.00;10.65;;;22.00;69.30;;;;;;5076417;28;20122;-90
2021/09/18 11:58:06;;;;;;;13.80;11.73;;;22.00;69.50;;;;;;5076924;28;20028;-90
2021/09/18 12:00:34;;;;;;;14.98;12.95;;;22.00;69.30;;;;;;5065884;28;20028;-92
2021/09/18 12:03:03;;;;;;;16.50;12.88;;;22.00;69.20;;;;;;5043829;28;20036;-91
2021/09/18 12:05:32;;;;;;;15.30;12.98;;;22.00;69.30;;;;;;5062732;28;20039;-90
2021/09/18 12:07:58;;;;;;;15.65;13.57;;;22.00;69.30;;;;;;5059050;28;20047;-89
2021/09/18 12:10:27;;;;;;;15.15;12.68;;;22.10;69.30;;;;;;5062331;28;20090;-93
2021/09/18 12:12:56;;;;;;;16.40;13.32;;;22.10;69.40;;;;;;5062229;28;20035;-95
2021/09/18 12:15:43;;;;;;;15.40;13.15;;;22.10;69.30;;;;;;5076645;28;20040;-93
2021/09/18 12:18:27;;;;;;;15.27;12.63;;;22.10;69.40;;;;;;5062468;28;20109;-93
2021/09/18 12:29:33;;;;;;;;;;;;;;;;;;;;;
2021/09/18 12:37:01;;;;;;;;;;;;;;;;;;;;;
2021/09/18 12:39:47;;;;;;;13.65;10.75;;;22.20;69.50;;;;;;5084501;28;20032;-85
2021/09/18 12:42:16;;;;;;;13.57;12.18;;;22.20;69.30;;;;;;5079171;28;20024;-85
2021/09/18 12:44:42;;;;;;;13.82;11.63;;;22.20;69.40;;;;;;5061848;28;20078;-86
2021/09/18 12:47:21;;;;;;;13.82;11.70;;;22.10;69.40;;;;;;5062926;28;20488;-84
2021/09/18 12:49:47;;;;;;;13.85;12.05;;;22.20;69.60;;;;;;5062166;28;20042;-86
2021/09/18 12:52:12;;;;;;;13.35;11.65;;;22.20;69.40;;;;;;5045926;28;20112;-88
2021/09/18 12:54:46;;;;;;;13.73;11.90;;;22.20;69.40;;;;;;5062149;28;20066;-86
2021/09/18 12:57:12;;;;;;;13.38;11.65;;;22.20;69.40;;;;;;5096793;28;20070;-87
2021/09/18 12:59:45;;;;;;;13.23;11.82;;;22.20;69.40;;;;;;5079326;28;20043;-86
2021/09/18 13:02:28;;;;;;;13.55;11.52;;;22.30;69.50;;;;;;5062884;28;20032;-85
2021/09/18 13:04:57;;;;;;;12.65;11.27;;;22.30;69.40;;;;;;5082068;28;20119;-85
2021/09/18 13:07:24;;;;;;;12.57;11.13;;;22.30;69.40;;;;;;5061613;28;20069;-83
2021/09/18 13:09:58;;;;;;;12.55;10.73;;;22.30;69.30;;;;;;5062058;28;20043;-82
2021/09/18 13:12:24;;;;;;;;;;;22.30;69.40;;;;;;5062613;28;20517;-85
2021/09/18 13:14:56;;;;;;;9.82;8.32;;;22.30;69.20;;;;;;5062800;28;19946;-84